createdAt,value
2018-12-02T00:00:13.573Z,13.90
2018-12-02T00:01:45.149Z,13.40
2018-12-02T00:03:16.722Z,14.80
2018-12-02T00:04:48.298Z,14.40
2018-12-02T00:06:19.873Z,14.80
2018-12-02T00:07:51.447Z,15.20
2018-12-02T00:09:23.023Z,14.00
2018-12-02T00:10:54.596Z,14.80
2018-12-02T00:12:26.172Z,15.00
2018-12-02T00:13:57.745Z,14.30
2018-12-02T00:15:29.320Z,13.60
2018-12-02T00:17:00.997Z,13.00
2018-12-02T00:18:32.469Z,15.90
2018-12-02T00:20:04.044Z,13.00
2018-12-02T00:21:35.622Z,12.40
2018-12-02T00:23:07.195Z,11.50
2018-12-02T00:24:38.767Z,11.80
2018-12-02T00:26:10.341Z,11.50
2018-12-02T00:27:41.916Z,12.20
2018-12-02T00:29:13.491Z,11.80
2018-12-02T00:30:45.071Z,11.30
2018-12-02T00:32:16.640Z,11.20
2018-12-02T00:33:48.214Z,10.00
2018-12-02T00:35:19.888Z,10.80
2018-12-02T00:36:51.363Z,10.10
2018-12-02T00:38:22.939Z,10.50
2018-12-02T00:39:54.511Z,11.70
2018-12-02T00:41:26.089Z,10.30
2018-12-02T00:42:57.661Z,9.50
2018-12-02T00:44:29.235Z,10.20
2018-12-02T00:46:00.810Z,10.70
2018-12-02T00:47:32.384Z,11.40
2018-12-02T00:49:03.963Z,11.40
2018-12-02T00:50:35.532Z,11.30
2018-12-02T00:52:07.106Z,11.50
2018-12-02T00:53:38.780Z,11.40
2018-12-02T00:55:10.261Z,11.70
2018-12-02T00:56:41.829Z,11.10
2018-12-02T00:58:13.403Z,12.10
2018-12-02T00:59:44.978Z,11.90
2018-12-02T01:01:16.552Z,10.60
2018-12-02T01:02:48.125Z,10.10
2018-12-02T01:04:19.701Z,9.70
2018-12-02T01:05:51.274Z,10.60
2018-12-02T01:07:22.849Z,10.20
2018-12-02T01:08:54.422Z,11.50
2018-12-02T01:10:25.996Z,11.80
2018-12-02T01:11:57.670Z,12.30
2018-12-02T01:13:29.146Z,12.30
2018-12-02T01:15:00.718Z,11.50
2018-12-02T01:16:32.292Z,11.20
2018-12-02T01:18:03.866Z,10.90
2018-12-02T01:19:35.440Z,11.90
2018-12-02T01:21:07.014Z,10.90
2018-12-02T01:22:38.588Z,12.60
2018-12-02T01:24:10.162Z,12.50
2018-12-02T01:25:41.736Z,12.00
2018-12-02T01:27:13.309Z,12.10
2018-12-02T01:28:44.883Z,12.60
2018-12-02T01:30:16.558Z,11.80
2018-12-02T01:31:48.031Z,12.30
2018-12-02T01:33:19.608Z,12.10
2018-12-02T01:34:51.179Z,10.90
2018-12-02T01:36:22.756Z,10.90
2018-12-02T01:37:54.326Z,10.10
2018-12-02T01:39:25.900Z,12.40
2018-12-02T01:40:57.478Z,10.60
2018-12-02T01:42:29.050Z,12.30
2018-12-02T01:44:00.622Z,10.70
2018-12-02T01:45:32.196Z,10.40
2018-12-02T01:47:03.770Z,11.20
2018-12-02T01:48:35.444Z,11.30
2018-12-02T01:50:06.920Z,13.20
2018-12-02T01:51:38.492Z,12.50
2018-12-02T01:53:10.082Z,12.30
2018-12-02T01:54:41.640Z,12.40
2018-12-02T01:56:13.213Z,11.80
2018-12-02T01:57:44.787Z,11.50
2018-12-02T01:59:16.361Z,11.50
2018-12-02T02:00:47.935Z,10.10
2018-12-02T02:02:19.509Z,10.40
2018-12-02T02:03:51.083Z,10.20
2018-12-02T02:05:22.656Z,9.40
2018-12-02T02:06:54.331Z,10.50
2018-12-02T02:08:25.804Z,9.70
2018-12-02T02:09:57.380Z,9.90
2018-12-02T02:11:28.952Z,9.20
2018-12-02T02:13:00.526Z,9.30
2018-12-02T02:14:32.099Z,10.20
2018-12-02T02:16:03.673Z,10.50
2018-12-02T02:17:35.247Z,10.30
2018-12-02T02:19:06.820Z,10.50
2018-12-02T02:20:38.395Z,9.90
2018-12-02T02:22:09.968Z,10.80
2018-12-02T02:23:41.542Z,10.30
2018-12-02T02:25:13.216Z,9.60
2018-12-02T02:26:44.689Z,9.40
2018-12-02T02:28:16.263Z,8.80
2018-12-02T02:29:47.837Z,8.90
2018-12-02T02:31:19.410Z,9.00
2018-12-02T02:32:50.996Z,9.50
2018-12-02T02:34:22.559Z,11.90
2018-12-02T02:35:54.134Z,10.20
2018-12-02T02:37:25.706Z,10.30
2018-12-02T02:38:57.280Z,10.40
2018-12-02T02:40:28.855Z,10.10
2018-12-02T02:42:00.427Z,9.90
2018-12-02T02:43:32.601Z,9.30
2018-12-02T02:45:03.574Z,10.20
2018-12-02T02:46:35.147Z,8.90
2018-12-02T02:48:06.723Z,8.20
2018-12-02T02:49:38.302Z,9.40
2018-12-02T02:51:09.869Z,9.70
2018-12-02T02:52:41.442Z,9.40
2018-12-02T02:54:13.017Z,8.80
2018-12-02T02:55:44.588Z,8.40
2018-12-02T02:57:16.164Z,9.20
2018-12-02T02:58:47.737Z,9.70
2018-12-02T03:00:19.317Z,9.30
2018-12-02T03:01:50.983Z,9.80
2018-12-02T03:03:22.456Z,10.50
2018-12-02T03:04:54.031Z,9.80
2018-12-02T03:06:25.605Z,10.00
2018-12-02T03:07:57.176Z,10.20
2018-12-02T03:09:28.752Z,10.50
2018-12-02T03:11:00.323Z,11.30
2018-12-02T03:12:31.898Z,11.70
2018-12-02T03:14:03.471Z,10.90
2018-12-02T03:15:35.044Z,13.70
2018-12-02T03:17:06.616Z,12.20
2018-12-02T03:18:38.241Z,14.70
2018-12-02T03:20:09.864Z,11.70
2018-12-02T03:21:41.337Z,12.90
2018-12-02T03:23:12.910Z,11.00
2018-12-02T03:24:44.497Z,12.20
2018-12-02T03:26:16.057Z,12.60
2018-12-02T03:27:47.630Z,13.20
2018-12-02T03:29:19.205Z,16.20
2018-12-02T03:30:50.788Z,16.00
2018-12-02T03:32:22.358Z,14.50
2018-12-02T03:33:53.981Z,14.10
2018-12-02T03:35:25.500Z,15.00
2018-12-02T03:36:57.073Z,14.20
2018-12-02T03:38:28.746Z,16.50
2018-12-02T03:40:00.218Z,17.70
2018-12-02T03:41:31.792Z,18.10
2018-12-02T03:43:03.365Z,15.20
2018-12-02T03:44:34.938Z,14.30
2018-12-02T03:46:06.515Z,12.90
2018-12-02T03:47:38.085Z,13.40
2018-12-02T03:49:09.660Z,13.70
2018-12-02T03:50:41.232Z,14.10
2018-12-02T03:52:12.806Z,13.00
2018-12-02T03:53:44.379Z,12.20
2018-12-02T03:55:15.953Z,13.00
2018-12-02T03:56:47.626Z,15.90
2018-12-02T03:58:19.101Z,18.40
2018-12-02T03:59:50.672Z,19.00
2018-12-02T04:01:22.246Z,19.30
2018-12-02T04:02:53.821Z,18.80
2018-12-02T04:04:25.393Z,19.40
2018-12-02T04:05:56.966Z,15.80
2018-12-02T04:07:28.549Z,15.70
2018-12-02T04:09:00.113Z,13.90
2018-12-02T04:10:31.686Z,12.80
2018-12-02T04:12:03.262Z,13.10
2018-12-02T04:13:34.833Z,13.20
2018-12-02T04:15:06.506Z,13.30
2018-12-02T04:16:37.981Z,13.50
2018-12-02T04:18:09.553Z,12.90
2018-12-02T04:19:41.126Z,17.90
2018-12-02T04:21:12.700Z,19.10
2018-12-02T04:22:44.273Z,19.20
2018-12-02T04:24:15.846Z,19.30
2018-12-02T04:25:47.419Z,17.00
2018-12-02T04:27:18.993Z,13.00
2018-12-02T04:28:50.566Z,14.40
2018-12-02T04:30:22.140Z,13.20
2018-12-02T04:31:53.712Z,13.00
2018-12-02T04:33:25.387Z,13.60
2018-12-02T04:34:56.859Z,13.40
2018-12-02T04:36:28.433Z,16.80
2018-12-02T04:38:00.009Z,18.90
2018-12-02T04:39:31.579Z,22.10
2018-12-02T04:41:03.154Z,21.00
2018-12-02T04:42:34.726Z,18.90
2018-12-02T04:44:06.299Z,17.10
2018-12-02T04:45:37.872Z,12.70
2018-12-02T04:47:09.446Z,12.60
2018-12-02T04:48:41.019Z,15.20
2018-12-02T04:50:12.592Z,14.20
2018-12-02T04:51:44.266Z,14.30
2018-12-02T04:53:15.740Z,14.90
2018-12-02T04:54:47.312Z,14.60
2018-12-02T04:56:18.891Z,19.90
2018-12-02T04:57:50.463Z,33.50
2018-12-02T04:59:22.032Z,30.30
2018-12-02T05:00:53.647Z,33.10
2018-12-02T05:02:25.180Z,35.20
2018-12-02T05:03:56.752Z,21.10
2018-12-02T05:05:28.326Z,23.10
2018-12-02T05:06:59.901Z,15.60
2018-12-02T05:08:31.472Z,16.70
2018-12-02T05:10:03.149Z,28.80
2018-12-02T05:11:34.620Z,24.80
2018-12-02T05:13:06.195Z,36.30
2018-12-02T05:14:37.766Z,39.80
2018-12-02T05:16:09.339Z,30.30
2018-12-02T05:17:40.913Z,27.30
2018-12-02T05:19:12.486Z,26.50
2018-12-02T05:20:44.059Z,24.60
2018-12-02T05:22:15.633Z,27.60
2018-12-02T05:23:47.206Z,30.60
2018-12-02T05:25:18.867Z,33.30
2018-12-02T05:26:50.354Z,33.00
2018-12-02T05:28:22.027Z,25.20
2018-12-02T05:29:53.501Z,24.70
2018-12-02T05:31:25.074Z,23.80
2018-12-02T05:32:56.647Z,20.70
2018-12-02T05:34:28.221Z,19.60
2018-12-02T05:35:59.800Z,19.00
2018-12-02T05:37:31.368Z,17.60
2018-12-02T05:39:02.941Z,18.50
2018-12-02T05:40:34.515Z,17.60
2018-12-02T05:42:06.092Z,18.60
2018-12-02T05:43:37.662Z,17.50
2018-12-02T05:45:09.235Z,17.80
2018-12-02T05:46:40.908Z,16.50
2018-12-02T05:48:12.381Z,14.50
2018-12-02T05:49:43.955Z,12.60
2018-12-02T05:51:15.528Z,11.30
2018-12-02T05:52:47.102Z,10.30
2018-12-02T05:54:18.674Z,8.80
2018-12-02T05:55:50.248Z,6.40
2018-12-02T05:57:21.822Z,6.60
2018-12-02T05:58:53.397Z,6.30
2018-12-02T06:00:24.968Z,6.30
2018-12-02T06:01:56.540Z,6.50
2018-12-02T06:03:28.113Z,6.10
2018-12-02T06:04:59.787Z,5.40
2018-12-02T06:06:31.259Z,6.30
2018-12-02T06:08:02.833Z,6.10
2018-12-02T06:09:34.404Z,5.40
2018-12-02T06:11:05.978Z,5.60
2018-12-02T06:12:37.550Z,5.90
2018-12-02T06:14:09.122Z,5.90
2018-12-02T06:15:40.695Z,5.00
2018-12-02T06:17:12.267Z,5.30
2018-12-02T06:18:43.840Z,4.90
2018-12-02T06:20:15.414Z,4.50
2018-12-02T06:21:46.986Z,4.50
2018-12-02T06:23:18.661Z,4.70
2018-12-02T06:24:50.131Z,5.20
2018-12-02T06:26:21.703Z,4.60
2018-12-02T06:27:53.276Z,4.90
2018-12-02T06:29:24.850Z,5.60
2018-12-02T06:30:56.421Z,5.20
2018-12-02T06:32:27.994Z,4.40
2018-12-02T06:33:59.566Z,4.90
2018-12-02T06:35:31.139Z,4.60
2018-12-02T06:37:02.713Z,3.90
2018-12-02T06:38:34.284Z,4.30
2018-12-02T06:40:05.857Z,4.20
2018-12-02T06:41:37.529Z,4.70
2018-12-02T06:43:09.002Z,4.40
2018-12-02T06:44:40.574Z,4.20
2018-12-02T06:46:12.146Z,5.00
2018-12-02T06:47:43.721Z,4.40
2018-12-02T06:49:15.290Z,4.20
2018-12-02T06:50:46.863Z,4.50
2018-12-02T06:52:18.435Z,4.00
2018-12-02T06:53:50.062Z,4.80
2018-12-02T06:55:21.579Z,3.90
2018-12-02T06:56:53.152Z,4.90
2018-12-02T06:58:24.729Z,4.50
2018-12-02T06:59:56.397Z,4.20
2018-12-02T07:01:27.869Z,5.00
2018-12-02T07:02:59.441Z,4.60
2018-12-02T07:04:31.014Z,4.40
2018-12-02T07:06:02.585Z,4.20
2018-12-02T07:07:34.159Z,4.80
2018-12-02T07:09:05.731Z,4.50
2018-12-02T07:10:37.303Z,5.80
2018-12-02T07:12:08.877Z,5.10
2018-12-02T07:13:40.447Z,4.90
2018-12-02T07:15:12.019Z,4.90
2018-12-02T07:16:43.591Z,4.80
2018-12-02T07:18:15.265Z,5.20
2018-12-02T07:19:46.736Z,5.20
2018-12-02T07:21:18.311Z,4.80
2018-12-02T07:22:49.881Z,5.10
2018-12-02T07:24:21.453Z,4.60
2018-12-02T07:25:53.025Z,4.80
2018-12-02T07:27:24.597Z,5.20
2018-12-02T07:28:56.169Z,4.80
2018-12-02T07:30:27.742Z,5.30
2018-12-02T07:31:59.315Z,5.30
2018-12-02T07:33:30.886Z,5.00
2018-12-02T07:35:02.459Z,5.60
2018-12-02T07:36:34.131Z,4.90
2018-12-02T07:38:05.603Z,6.10
2018-12-02T07:39:37.176Z,6.40
2018-12-02T07:41:08.747Z,6.40
2018-12-02T07:42:40.320Z,6.30
2018-12-02T07:44:11.892Z,6.10
2018-12-02T07:45:43.463Z,5.80
2018-12-02T07:47:15.036Z,6.20
2018-12-02T07:48:46.608Z,5.00
2018-12-02T07:50:18.180Z,6.10
2018-12-02T07:51:49.755Z,6.30
2018-12-02T07:53:21.326Z,5.50
2018-12-02T07:54:52.997Z,5.50
2018-12-02T07:56:24.468Z,5.50
2018-12-02T07:57:56.041Z,4.50
2018-12-02T07:59:27.615Z,5.80
2018-12-02T08:00:59.185Z,6.10
2018-12-02T08:02:30.757Z,5.40
2018-12-02T08:04:02.330Z,6.60
2018-12-02T08:05:33.903Z,7.10
2018-12-02T08:07:05.475Z,6.80
2018-12-02T08:08:37.045Z,6.70
2018-12-02T08:10:08.623Z,6.60
2018-12-02T08:11:40.190Z,6.80
2018-12-02T08:13:11.862Z,6.40
2018-12-02T08:14:43.334Z,7.10
2018-12-02T08:16:14.906Z,6.00
2018-12-02T08:19:18.053Z,5.70
2018-12-02T08:20:49.623Z,6.30
2018-12-02T08:22:21.747Z,6.00
2018-12-02T08:23:52.766Z,5.80
2018-12-02T08:25:24.340Z,6.70
2018-12-02T08:26:55.913Z,5.50
2018-12-02T08:28:27.482Z,6.40
2018-12-02T08:29:59.054Z,5.50
2018-12-02T08:31:30.727Z,6.00
2018-12-02T08:36:05.345Z,5.50
2018-12-02T08:37:36.917Z,5.00
2018-12-02T08:40:40.065Z,4.30
2018-12-02T08:42:11.637Z,4.90
2018-12-02T08:43:43.211Z,5.20
2018-12-02T08:45:14.784Z,4.80
2018-12-02T08:46:46.358Z,4.90
2018-12-02T08:48:18.238Z,4.40
2018-12-02T08:49:49.605Z,5.00
2018-12-02T08:51:21.080Z,5.10
2018-12-02T08:52:52.655Z,4.50
2018-12-02T08:54:24.229Z,3.80
2018-12-02T08:55:56.107Z,4.80
2018-12-02T08:57:27.377Z,4.40
2018-12-02T08:58:58.952Z,3.20
2018-12-02T09:00:30.527Z,3.20
2018-12-02T09:02:02.609Z,3.90
2018-12-02T09:03:33.677Z,3.00
2018-12-02T09:05:05.252Z,2.90
2018-12-02T09:06:36.827Z,3.30
2018-12-02T09:08:09.027Z,2.60
2018-12-02T09:09:39.981Z,3.40
2018-12-02T09:11:11.554Z,3.20
2018-12-02T09:12:43.128Z,3.20
2018-12-02T09:14:14.704Z,3.30
2018-12-02T09:15:46.278Z,3.70
2018-12-02T09:17:18.376Z,3.50
2018-12-02T09:18:49.431Z,3.90
2018-12-02T09:20:21.003Z,4.10
2018-12-02T09:21:52.582Z,3.50
2018-12-02T09:23:24.458Z,3.90
2018-12-02T09:24:55.728Z,3.60
2018-12-02T09:26:27.403Z,3.70
2018-12-02T09:27:58.879Z,3.70
2018-12-02T09:31:02.027Z,3.00
2018-12-02T09:32:33.602Z,3.00
2018-12-02T09:34:05.176Z,3.10
2018-12-02T09:35:36.752Z,3.50
2018-12-02T09:37:08.326Z,3.90
2018-12-02T09:38:39.903Z,3.10
2018-12-02T09:40:11.475Z,3.40
2018-12-02T09:41:43.049Z,3.10
2018-12-02T09:43:14.623Z,3.20
2018-12-02T09:46:18.076Z,3.40
2018-12-02T09:47:49.478Z,3.10
2018-12-02T09:49:20.923Z,3.20
2018-12-02T09:52:24.076Z,3.60
2018-12-02T09:53:55.647Z,3.50
2018-12-02T09:55:27.218Z,4.00
2018-12-02T09:56:58.793Z,3.50
2018-12-02T09:58:30.572Z,3.40
2018-12-02T10:00:01.959Z,3.40
2018-12-02T10:01:33.520Z,3.60
2018-12-02T10:03:05.096Z,2.70
2018-12-02T10:04:36.773Z,2.60
2018-12-02T10:06:08.250Z,2.10
2018-12-02T10:07:39.829Z,2.40
2018-12-02T10:09:11.403Z,2.10
2018-12-02T10:10:42.981Z,2.30
2018-12-02T10:12:14.558Z,2.10
2018-12-02T10:13:46.922Z,2.30
2018-12-02T10:15:17.713Z,2.50
2018-12-02T10:16:49.290Z,2.20
2018-12-02T10:18:20.866Z,2.40
2018-12-02T10:19:52.443Z,2.80
2018-12-02T10:21:24.021Z,2.30
2018-12-02T10:22:55.696Z,2.70
2018-12-02T10:24:27.173Z,2.90
2018-12-02T10:25:58.749Z,2.90
2018-12-02T10:27:30.327Z,2.40
2018-12-02T10:29:01.903Z,2.50
2018-12-02T10:30:33.479Z,2.50
2018-12-02T10:32:05.055Z,2.60
2018-12-02T10:33:36.634Z,2.60
2018-12-02T10:35:08.514Z,2.30
2018-12-02T10:36:39.787Z,2.40
2018-12-02T10:38:11.362Z,2.50
2018-12-02T10:39:42.938Z,2.20
2018-12-02T10:41:14.616Z,2.60
2018-12-02T10:42:46.093Z,2.50
2018-12-02T10:44:17.669Z,2.40
2018-12-02T10:45:49.246Z,2.40
2018-12-02T10:47:20.821Z,2.70
2018-12-02T10:48:52.603Z,3.50
2018-12-02T10:50:23.977Z,3.40
2018-12-02T10:51:55.554Z,3.00
2018-12-02T10:53:27.132Z,3.00
2018-12-02T10:54:58.711Z,2.70
2018-12-02T10:56:30.290Z,2.30
2018-12-02T10:58:01.870Z,2.30
2018-12-02T10:59:33.551Z,2.30
2018-12-02T11:01:05.031Z,2.10
2018-12-02T11:02:36.610Z,2.50
2018-12-02T11:04:08.495Z,2.30
2018-12-02T11:05:39.770Z,2.00
2018-12-02T11:07:11.350Z,2.30
2018-12-02T11:08:42.931Z,2.20
2018-12-02T11:11:46.092Z,2.50
2018-12-02T11:13:17.671Z,2.40
2018-12-02T11:14:49.252Z,2.30
2018-12-02T11:16:20.833Z,2.20
2018-12-02T11:17:52.513Z,2.40
2018-12-02T11:19:23.993Z,2.30
2018-12-02T11:20:55.572Z,2.60
2018-12-02T11:22:27.457Z,2.60
2018-12-02T11:23:58.732Z,2.30
2018-12-02T11:25:30.310Z,2.50
2018-12-02T11:27:01.890Z,2.50
2018-12-02T11:28:33.470Z,2.50
2018-12-02T11:30:05.051Z,2.20
2018-12-02T11:31:36.628Z,2.40
2018-12-02T11:33:08.513Z,2.80
2018-12-02T11:34:39.788Z,2.00
2018-12-02T11:36:11.469Z,1.90
2018-12-02T11:37:42.946Z,2.20
2018-12-02T11:39:14.831Z,2.10
2018-12-02T11:40:46.114Z,2.20
2018-12-02T11:42:17.685Z,2.30
2018-12-02T11:43:49.265Z,2.10
2018-12-02T11:46:52.628Z,2.20
2018-12-02T11:48:24.003Z,2.40
2018-12-02T11:49:55.582Z,2.70
2018-12-02T11:51:27.166Z,1.80
2018-12-02T11:52:58.743Z,2.00
2018-12-02T11:54:30.627Z,1.80
2018-12-02T11:56:01.906Z,1.90
2018-12-02T11:57:33.486Z,2.00
2018-12-02T11:59:05.270Z,2.00
2018-12-02T12:00:36.649Z,2.00
2018-12-02T12:02:08.534Z,2.10
2018-12-02T12:03:39.814Z,2.20
2018-12-02T12:05:11.392Z,1.90
2018-12-02T12:06:42.972Z,2.40
2018-12-02T12:08:14.617Z,2.20
2018-12-02T12:09:46.136Z,1.90
2018-12-02T12:11:17.716Z,1.90
2018-12-02T12:14:20.979Z,1.80
2018-12-02T12:17:24.043Z,1.90
2018-12-02T12:18:55.625Z,2.20
2018-12-02T12:21:58.786Z,2.00
2018-12-02T12:23:30.569Z,2.20
2018-12-02T12:25:02.673Z,2.10
2018-12-02T12:26:33.530Z,2.40
2018-12-02T12:28:05.546Z,1.90
2018-12-02T12:29:36.692Z,2.10
2018-12-02T12:31:08.794Z,2.20
2018-12-02T12:32:39.855Z,2.10
2018-12-02T12:34:11.536Z,2.70
2018-12-02T12:35:43.419Z,1.80
2018-12-02T12:37:14.598Z,1.80
2018-12-02T12:38:46.558Z,1.80
2018-12-02T12:40:17.763Z,1.90
2018-12-02T12:43:20.929Z,1.60
2018-12-02T12:44:52.514Z,1.50
2018-12-02T12:46:24.201Z,1.70
2018-12-02T12:47:55.679Z,1.90
2018-12-02T12:49:27.264Z,1.80
2018-12-02T12:50:59.370Z,1.80
2018-12-02T12:54:02.112Z,1.40
2018-12-02T12:55:33.796Z,1.50
2018-12-02T12:57:05.179Z,1.80
2018-12-02T12:58:37.283Z,1.30
2018-12-02T13:00:09.071Z,1.40
2018-12-02T13:01:39.930Z,1.40
2018-12-02T13:03:11.516Z,1.50
2018-12-02T13:04:43.097Z,1.30
2018-12-02T13:06:14.683Z,1.40
2018-12-02T13:07:48.205Z,1.40
2018-12-02T13:09:17.854Z,1.30
2018-12-02T13:10:49.570Z,1.30
2018-12-02T13:12:21.429Z,1.40
2018-12-02T13:13:52.614Z,1.20
2018-12-02T13:15:24.246Z,1.20
2018-12-02T13:16:55.783Z,1.30
2018-12-02T13:18:27.367Z,1.30
2018-12-02T13:19:58.957Z,1.20
2018-12-02T13:21:30.539Z,1.20
2018-12-02T13:23:02.430Z,1.20
2018-12-02T13:24:33.711Z,1.50
2018-12-02T13:26:05.298Z,1.60
2018-12-02T13:27:37.187Z,1.90
2018-12-02T13:30:40.673Z,1.60
2018-12-02T13:32:11.637Z,1.60
2018-12-02T13:33:43.224Z,1.50
2018-12-02T13:35:14.804Z,1.80
2018-12-02T13:36:46.589Z,1.80
2018-12-02T13:38:17.971Z,1.40
2018-12-02T13:39:49.759Z,1.50
2018-12-02T13:41:21.137Z,1.30
2018-12-02T13:42:52.925Z,1.30
2018-12-02T13:44:24.308Z,1.20
2018-12-02T13:45:56.096Z,1.20
2018-12-02T13:47:27.479Z,1.50
2018-12-02T13:52:02.340Z,1.40
2018-12-02T13:58:08.586Z,1.30
2018-12-02T13:59:40.696Z,1.20
2018-12-02T14:01:11.794Z,1.20
2018-12-02T14:04:14.937Z,1.30
2018-12-02T14:05:46.524Z,1.30
2018-12-02T14:07:18.635Z,1.20
2018-12-02T14:08:49.702Z,1.30
2018-12-02T14:11:52.981Z,1.50
2018-12-02T14:13:24.474Z,1.30
2018-12-02T14:14:56.770Z,1.30
2018-12-02T14:16:27.959Z,1.20
2018-12-02T14:17:59.244Z,1.30
2018-12-02T14:19:34.336Z,1.30
2018-12-02T14:21:02.732Z,1.30
2018-12-02T14:22:34.018Z,1.30
2018-12-02T14:24:05.813Z,1.30
2018-12-02T14:25:37.205Z,1.20
2018-12-02T14:27:08.996Z,1.30
2018-12-02T14:28:40.585Z,1.20
2018-12-02T14:30:13.490Z,1.20
2018-12-02T14:33:15.158Z,1.40
2018-12-02T14:34:46.755Z,1.30
2018-12-02T14:36:18.543Z,1.10
2018-12-02T14:37:49.932Z,1.20
2018-12-02T14:39:21.525Z,1.40
2018-12-02T14:40:53.127Z,1.30
2018-12-02T14:42:24.908Z,1.20
2018-12-02T14:43:56.497Z,1.20
2018-12-02T14:45:27.886Z,1.20
2018-12-02T14:46:59.780Z,1.40
2018-12-02T14:48:31.816Z,1.40
2018-12-02T14:50:02.656Z,1.50
2018-12-02T14:51:34.461Z,1.50
2018-12-02T14:53:05.826Z,1.50
2018-12-02T14:54:37.412Z,1.50
2018-12-02T14:56:09.001Z,1.50
2018-12-02T14:57:40.588Z,1.60
2018-12-02T14:59:12.172Z,1.40
2018-12-02T15:00:44.670Z,1.50
2018-12-02T15:02:15.347Z,1.50
2018-12-02T15:03:46.936Z,1.40
2018-12-02T15:05:20.378Z,1.60
2018-12-02T15:06:50.212Z,1.70
2018-12-02T15:08:21.699Z,1.70
2018-12-02T15:09:53.317Z,1.50
2018-12-02T15:11:24.874Z,1.50
2018-12-02T15:12:56.980Z,1.60
2018-12-02T15:14:28.051Z,1.70
2018-12-02T15:15:59.634Z,1.40
2018-12-02T15:17:31.220Z,1.50
2018-12-02T15:19:02.809Z,1.40
2018-12-02T15:22:06.183Z,1.60
2018-12-02T15:23:37.868Z,1.80
2018-12-02T15:25:09.248Z,1.50
2018-12-02T15:26:40.734Z,1.50
2018-12-02T15:28:12.525Z,1.60
2018-12-02T15:29:43.904Z,1.70
2018-12-02T15:31:15.489Z,1.80
2018-12-02T15:32:47.074Z,1.50
2018-12-02T15:34:18.660Z,1.40
2018-12-02T15:35:50.446Z,1.60
2018-12-02T15:38:53.444Z,1.90
2018-12-02T15:40:25.002Z,1.70
2018-12-02T15:41:56.582Z,2.10
2018-12-02T15:43:28.166Z,1.80
2018-12-02T15:45:00.372Z,2.40
2018-12-02T15:48:02.919Z,1.70
2018-12-02T15:49:34.505Z,1.50
2018-12-02T15:51:06.610Z,1.50
2018-12-02T15:52:37.670Z,1.60
2018-12-02T15:54:09.256Z,1.40
2018-12-02T15:55:40.842Z,1.40
2018-12-02T15:57:12.428Z,1.40
2018-12-02T15:58:44.536Z,1.50
2018-12-02T16:01:48.378Z,1.60
2018-12-02T16:06:22.048Z,1.20
2018-12-02T16:07:53.532Z,0.80
2018-12-02T16:09:25.117Z,0.60
2018-12-02T16:10:56.698Z,0.70
2018-12-02T16:12:28.485Z,0.60
2018-12-02T16:15:32.863Z,0.60
2018-12-02T16:17:03.031Z,0.80
2018-12-02T16:20:06.196Z,0.80
2018-12-02T16:21:37.779Z,0.80
2018-12-02T16:23:09.361Z,0.80
2018-12-02T16:26:13.349Z,0.80
2018-12-02T16:27:44.110Z,0.90
2018-12-02T16:29:15.697Z,0.80
2018-12-02T16:30:48.001Z,0.90
2018-12-02T16:32:18.856Z,0.80
2018-12-02T16:35:22.020Z,0.90
2018-12-02T16:38:25.184Z,0.80
2018-12-02T16:42:59.933Z,0.80
2018-12-02T16:44:31.615Z,0.80
2018-12-02T16:46:03.099Z,0.80
2018-12-02T16:47:34.884Z,1.00
2018-12-02T16:49:06.462Z,0.90
2018-12-02T16:50:37.845Z,0.70
2018-12-02T16:52:09.425Z,0.70
2018-12-02T16:53:41.005Z,0.80
2018-12-02T16:55:12.588Z,0.90
2018-12-02T16:56:44.475Z,1.00
2018-12-02T17:01:18.916Z,1.00
2018-12-02T17:02:50.598Z,0.80
2018-12-02T17:04:22.079Z,0.90
2018-12-02T17:05:53.964Z,0.90
2018-12-02T17:08:56.832Z,0.90
2018-12-02T17:12:00.186Z,1.10
2018-12-02T17:18:06.714Z,1.00
2018-12-02T17:19:38.501Z,1.10
2018-12-02T17:21:09.471Z,1.00
2018-12-02T17:22:41.052Z,0.90
2018-12-02T17:24:12.836Z,1.40
2018-12-02T17:25:44.725Z,0.90
2018-12-02T17:28:47.382Z,1.10
2018-12-02T17:30:19.180Z,1.10
2018-12-02T17:31:50.548Z,0.90
2018-12-02T17:33:22.438Z,0.90
2018-12-02T17:36:25.919Z,0.90
2018-12-02T17:37:57.088Z,1.00
2018-12-02T17:39:28.767Z,1.30
2018-12-02T17:41:00.354Z,1.20
2018-12-02T17:42:31.629Z,1.10
2018-12-02T17:44:03.211Z,1.20
2018-12-02T17:45:34.794Z,1.30
2018-12-02T17:48:37.959Z,1.30
2018-12-02T17:50:09.744Z,0.80
2018-12-02T17:56:16.173Z,1.10
2018-12-02T17:57:47.757Z,1.10
2018-12-02T18:00:51.139Z,1.10
2018-12-02T18:02:22.200Z,1.20
2018-12-02T18:03:53.929Z,1.10
2018-12-02T18:05:25.568Z,0.90
2018-12-02T18:06:57.149Z,1.20
2018-12-02T18:08:28.528Z,1.10
2018-12-02T18:10:00.415Z,1.00
2018-12-02T18:14:34.956Z,0.90
2018-12-02T18:19:09.607Z,1.30
2018-12-02T18:20:41.183Z,1.10
2018-12-02T18:22:12.773Z,1.10
2018-12-02T18:28:19.084Z,1.40
2018-12-02T18:29:50.665Z,1.20
2018-12-02T18:31:22.447Z,1.40
2018-12-02T18:32:53.831Z,1.40
2018-12-02T18:34:25.504Z,1.20
2018-12-02T18:35:57.189Z,1.50
2018-12-02T18:37:28.563Z,1.60
2018-12-02T18:39:00.666Z,1.50
2018-12-02T18:40:31.723Z,1.80
2018-12-02T18:42:03.303Z,1.50
2018-12-02T18:43:34.883Z,1.60
2018-12-02T18:46:38.049Z,1.70
2018-12-02T18:48:09.622Z,1.70
2018-12-02T18:49:41.204Z,2.60
2018-12-02T18:51:13.089Z,2.30
2018-12-02T18:52:44.827Z,2.00
2018-12-02T18:54:15.941Z,1.80
2018-12-02T18:55:47.723Z,1.80
2018-12-02T18:58:50.880Z,1.60
2018-12-02T19:00:22.258Z,1.60
2018-12-02T19:01:53.836Z,1.90
2018-12-02T19:03:25.417Z,1.70
2018-12-02T19:04:56.993Z,1.70
2018-12-02T19:06:28.570Z,1.60
2018-12-02T19:08:00.670Z,1.40
2018-12-02T19:09:31.726Z,1.60
2018-12-02T19:11:03.419Z,1.60
2018-12-02T19:12:34.882Z,1.60
2018-12-02T19:15:38.034Z,1.30
2018-12-02T19:17:09.611Z,1.30
2018-12-02T19:18:41.190Z,1.30
2018-12-02T19:21:44.544Z,1.40
2018-12-02T19:23:15.933Z,1.50
2018-12-02T19:24:47.494Z,1.50
2018-12-02T19:27:51.153Z,1.60
2018-12-02T19:29:22.524Z,1.60
2018-12-02T19:30:53.799Z,1.50
2018-12-02T19:32:25.375Z,1.50
2018-12-02T19:33:56.950Z,1.90
2018-12-02T19:35:28.527Z,1.90
2018-12-02T19:37:00.106Z,2.30
2018-12-02T19:38:31.677Z,2.50
2018-12-02T19:40:03.254Z,2.70
2018-12-02T19:41:35.030Z,2.60
2018-12-02T19:43:06.402Z,2.90
2018-12-02T19:44:37.977Z,2.90
2018-12-02T19:46:09.552Z,3.10
2018-12-02T19:47:41.227Z,3.50
2018-12-02T19:50:44.280Z,2.90
2018-12-02T19:52:15.850Z,3.10
2018-12-02T19:53:47.425Z,2.60
2018-12-02T19:55:19.521Z,2.40
2018-12-02T19:56:50.578Z,2.50
2018-12-02T19:58:22.455Z,2.40
2018-12-02T19:59:53.724Z,2.40
2018-12-02T20:02:57.178Z,2.40
2018-12-02T20:06:00.651Z,2.40
2018-12-02T20:09:03.173Z,2.20
2018-12-02T20:10:35.270Z,2.30
2018-12-02T20:12:06.729Z,2.10
2018-12-02T20:13:37.897Z,2.10
2018-12-02T20:15:09.680Z,1.90
2018-12-02T20:16:41.050Z,2.10
2018-12-02T20:18:12.621Z,2.20
2018-12-02T20:19:44.197Z,2.20
2018-12-02T20:21:15.776Z,2.80
2018-12-02T20:22:47.348Z,2.80
2018-12-02T20:24:19.029Z,2.50
2018-12-02T20:25:50.497Z,2.70
2018-12-02T20:27:22.075Z,2.50
2018-12-02T20:28:54.170Z,2.70
2018-12-02T20:31:57.652Z,2.90
2018-12-02T20:34:59.949Z,2.40
2018-12-02T20:36:31.529Z,2.50
2018-12-02T20:38:03.099Z,2.30
2018-12-02T20:41:06.250Z,1.90
2018-12-02T20:42:37.823Z,2.20
2018-12-02T20:44:09.499Z,2.20
2018-12-02T20:45:41.177Z,2.00
2018-12-02T20:47:12.548Z,2.20
2018-12-02T20:48:44.428Z,1.90
2018-12-02T20:50:15.697Z,2.30
2018-12-02T20:51:47.474Z,2.00
2018-12-02T20:54:50.422Z,2.00
2018-12-02T20:56:21.996Z,1.80
2018-12-02T20:57:53.572Z,2.10
2018-12-02T20:59:25.145Z,2.30
2018-12-02T21:02:28.396Z,2.00
2018-12-02T21:03:59.874Z,2.30
2018-12-02T21:05:31.444Z,2.50
2018-12-02T21:07:03.323Z,2.50
2018-12-02T21:08:34.796Z,2.20
2018-12-02T21:10:06.474Z,2.70
2018-12-02T21:11:40.544Z,2.40
2018-12-02T21:13:09.327Z,2.50
2018-12-02T21:14:41.195Z,2.80
2018-12-02T21:17:44.043Z,2.10
2018-12-02T21:19:15.613Z,2.40
2018-12-02T21:20:47.990Z,2.60
2018-12-02T21:22:18.764Z,2.50
2018-12-02T21:23:50.539Z,2.10
2018-12-02T21:25:21.911Z,2.20
2018-12-02T21:26:53.485Z,2.10
2018-12-02T21:28:25.059Z,2.00
2018-12-02T21:31:28.207Z,2.40
2018-12-02T21:32:59.783Z,2.80
2018-12-02T21:34:31.355Z,2.90
2018-12-02T21:36:02.929Z,2.70
2018-12-02T21:39:06.177Z,2.70
2018-12-02T21:40:37.652Z,3.10
2018-12-02T21:42:09.225Z,3.10
2018-12-02T21:43:40.798Z,2.50
2018-12-02T21:45:12.371Z,2.70
2018-12-02T21:46:43.945Z,3.00
2018-12-02T21:48:15.520Z,2.90
2018-12-02T21:49:47.225Z,2.30
2018-12-02T21:51:19.004Z,2.50
2018-12-02T21:52:50.266Z,2.20
2018-12-02T21:54:21.851Z,2.30
2018-12-02T21:55:53.385Z,2.70
2018-12-02T21:57:25.060Z,2.40
2018-12-02T21:58:56.531Z,2.40
2018-12-02T22:00:28.109Z,2.10